createdAt,value
2019-03-29T00:00:43.182Z,101720.61
2019-03-29T00:03:14.037Z,101729.34
2019-03-29T00:05:44.897Z,101728.00
2019-03-29T00:08:15.655Z,101725.83
2019-03-29T00:10:47.037Z,101726.55
2019-03-29T00:13:18.070Z,101730.97
2019-03-29T00:15:48.879Z,101735.36
2019-03-29T00:18:20.484Z,101727.14
2019-03-29T00:20:51.460Z,101725.30
2019-03-29T00:23:23.008Z,101720.53
2019-03-29T00:25:53.965Z,101720.05
2019-03-29T00:28:24.853Z,101727.49
2019-03-29T00:30:55.805Z,101728.31
2019-03-29T00:33:26.597Z,101730.87
2019-03-29T00:35:57.516Z,101726.56
2019-03-29T00:38:28.442Z,101728.60
2019-03-29T00:40:59.419Z,101720.72
2019-03-29T00:43:30.457Z,101728.47
2019-03-29T00:46:01.317Z,101719.33
2019-03-29T00:48:35.402Z,101719.02
2019-03-29T00:51:04.834Z,101714.55
2019-03-29T00:53:35.950Z,101721.48
2019-03-29T00:56:07.040Z,101724.15
2019-03-29T00:58:37.866Z,101718.88
2019-03-29T01:01:08.826Z,101710.52
2019-03-29T01:03:39.782Z,101713.11
2019-03-29T01:06:10.677Z,101716.30
2019-03-29T01:08:41.714Z,101714.86
2019-03-29T01:11:12.622Z,101715.72
2019-03-29T01:13:43.797Z,101711.70
2019-03-29T01:16:14.614Z,101711.70
2019-03-29T01:18:46.467Z,101711.27
2019-03-29T01:21:17.500Z,101708.55
2019-03-29T01:23:49.277Z,101713.44
2019-03-29T01:26:20.956Z,101716.87
2019-03-29T01:28:53.516Z,101713.21
2019-03-29T01:31:24.437Z,101709.26
2019-03-29T01:33:55.612Z,101703.11
2019-03-29T01:36:28.059Z,101700.85
2019-03-29T01:38:59.204Z,101699.94
2019-03-29T01:41:30.341Z,101697.03
2019-03-29T01:44:02.004Z,101693.53
2019-03-29T01:46:33.272Z,101691.70
2019-03-29T01:49:04.135Z,101693.02
2019-03-29T01:51:35.137Z,101694.70
2019-03-29T01:54:05.960Z,101697.48
2019-03-29T01:56:38.724Z,101690.91
2019-03-29T01:59:09.390Z,101680.59
2019-03-29T02:01:40.305Z,101682.56
2019-03-29T02:04:11.168Z,101669.33
2019-03-29T02:06:42.107Z,101672.91
2019-03-29T02:09:12.895Z,101671.59
2019-03-29T02:11:43.836Z,101669.78
2019-03-29T02:14:14.622Z,101668.52
2019-03-29T02:16:45.547Z,101665.91
2019-03-29T02:19:17.226Z,101665.08
2019-03-29T02:21:48.139Z,101663.33
2019-03-29T02:24:18.951Z,101669.09
2019-03-29T02:26:49.946Z,101658.16
2019-03-29T02:29:20.779Z,101652.44
2019-03-29T02:31:52.579Z,101659.66
2019-03-29T02:34:23.402Z,101658.78
2019-03-29T02:36:54.276Z,101651.69
2019-03-29T02:39:26.743Z,101655.66
2019-03-29T02:41:57.942Z,101649.51
2019-03-29T02:44:28.727Z,101650.69
2019-03-29T02:46:59.686Z,101653.83
2019-03-29T02:49:30.568Z,101657.03
2019-03-29T02:52:01.413Z,101642.17
2019-03-29T02:54:32.218Z,101643.98
2019-03-29T02:57:03.070Z,101643.48
2019-03-29T02:59:33.949Z,101637.33
2019-03-29T03:02:04.857Z,101642.11
2019-03-29T03:04:35.658Z,101632.50
2019-03-29T03:07:06.676Z,101636.39
2019-03-29T03:09:37.666Z,101635.50
2019-03-29T03:12:08.667Z,101633.33
2019-03-29T03:14:39.520Z,101635.20
2019-03-29T03:17:10.361Z,101632.00
2019-03-29T03:19:41.992Z,101637.66
2019-03-29T03:22:12.960Z,101640.40
2019-03-29T03:24:44.938Z,101638.52
2019-03-29T03:27:15.878Z,101640.36
2019-03-29T03:29:48.454Z,101635.96
2019-03-29T03:32:19.159Z,101627.98
2019-03-29T03:34:49.976Z,101627.98
2019-03-29T03:37:20.791Z,101632.31
2019-03-29T03:39:51.672Z,101641.98
2019-03-29T03:42:22.481Z,101644.89
2019-03-29T03:44:53.271Z,101646.59
2019-03-29T03:47:24.106Z,101659.74
2019-03-29T03:49:54.960Z,101657.05
2019-03-29T03:52:25.771Z,101652.66
2019-03-29T03:54:56.567Z,101643.52
2019-03-29T03:57:27.408Z,101646.05
2019-03-29T03:59:58.423Z,101655.58
2019-03-29T04:02:29.264Z,101646.86
2019-03-29T04:05:00.054Z,101653.00
2019-03-29T04:07:31.043Z,101652.12
2019-03-29T04:10:02.099Z,101649.33
2019-03-29T04:12:34.042Z,101653.38
2019-03-29T04:15:05.476Z,101652.49
2019-03-29T04:17:36.353Z,101644.61
2019-03-29T04:20:08.106Z,101656.08
2019-03-29T04:22:38.992Z,101650.80
2019-03-29T04:25:09.866Z,101660.55
2019-03-29T04:27:40.781Z,101658.72
2019-03-29T04:30:11.615Z,101664.95
2019-03-29T04:32:42.515Z,101664.19
2019-03-29T04:35:13.394Z,101671.06
2019-03-29T04:37:44.374Z,101668.06
2019-03-29T04:40:15.165Z,101670.19
2019-03-29T04:42:45.985Z,101679.05
2019-03-29T04:45:16.797Z,101677.83
2019-03-29T04:47:47.636Z,101678.55
2019-03-29T04:50:18.429Z,101686.23
2019-03-29T04:52:49.370Z,101688.58
2019-03-29T04:55:20.205Z,101683.94
2019-03-29T04:57:51.059Z,101685.65
2019-03-29T05:00:21.989Z,101686.89
2019-03-29T05:02:52.926Z,101686.00
2019-03-29T05:05:23.871Z,101693.41
2019-03-29T05:07:54.930Z,101694.72
2019-03-29T05:10:25.879Z,101686.88
2019-03-29T05:12:59.596Z,101692.61
2019-03-29T05:15:29.844Z,101691.05
2019-03-29T05:18:00.900Z,101692.38
2019-03-29T05:20:32.862Z,101680.27
2019-03-29T05:23:03.948Z,101675.11
2019-03-29T05:25:34.839Z,101668.30
2019-03-29T05:28:05.932Z,101654.00
2019-03-29T05:30:37.150Z,101647.46
2019-03-29T05:33:08.172Z,101643.15
2019-03-29T05:35:39.186Z,101643.98
2019-03-29T05:38:10.131Z,101645.27
2019-03-29T05:40:41.193Z,101641.78
2019-03-29T05:43:12.232Z,101633.87
2019-03-29T05:45:43.172Z,101640.03
2019-03-29T05:48:15.235Z,101646.28
2019-03-29T05:50:46.223Z,101651.63
2019-03-29T05:53:17.258Z,101642.88
2019-03-29T05:55:48.504Z,101631.88
2019-03-29T05:58:19.694Z,101643.31
2019-03-29T06:00:50.605Z,101638.95
2019-03-29T06:03:21.463Z,101640.34
2019-03-29T06:05:54.035Z,101648.70
2019-03-29T15:54:19.150Z,100974.64
2019-03-29T15:56:59.430Z,100976.31
2019-03-29T15:59:32.003Z,100980.98
2019-03-29T16:02:05.735Z,100977.79
2019-03-29T16:04:37.887Z,100978.83
2019-03-29T16:07:08.957Z,100977.16
2019-03-29T16:09:41.683Z,100984.43
2019-03-29T16:12:12.586Z,100978.77
2019-03-29T16:14:43.536Z,100978.78
2019-03-29T16:17:14.537Z,100974.33
2019-03-29T16:19:45.558Z,100980.98
2019-03-29T16:22:16.513Z,100975.60
2019-03-29T16:24:49.313Z,100974.91
2019-03-29T16:27:20.220Z,100969.66
2019-03-29T16:29:51.221Z,100974.06
2019-03-29T16:32:22.210Z,100982.06
2019-03-29T16:34:53.109Z,100977.77
2019-03-29T16:37:24.131Z,100975.32
2019-03-29T16:39:55.052Z,100972.39
2019-03-29T16:42:26.131Z,100966.66
2019-03-29T16:44:57.276Z,100969.20
2019-03-29T16:47:29.345Z,100973.58
2019-03-29T16:50:00.394Z,100974.34
2019-03-29T16:52:31.427Z,100977.60
2019-03-29T16:55:13.232Z,100981.01
2019-03-29T16:57:35.966Z,100976.37
2019-03-29T17:00:12.489Z,100976.73
2019-03-29T17:02:43.399Z,100971.35
2019-03-29T17:05:14.471Z,100969.17
2019-03-29T17:07:45.481Z,100969.25
2019-03-29T17:10:16.335Z,100970.55
2019-03-29T17:12:47.247Z,100963.94
2019-03-29T17:15:18.306Z,100965.81
2019-03-29T17:17:49.429Z,100968.58
2019-03-29T17:20:20.472Z,100968.24
2019-03-29T17:22:51.431Z,100963.03
2019-03-29T17:25:22.358Z,100971.31
2019-03-29T17:27:53.487Z,100965.92
2019-03-29T17:30:31.615Z,100963.80
2019-03-29T17:33:02.642Z,100963.05
2019-03-29T17:35:33.890Z,100948.91
2019-03-29T17:38:05.333Z,100950.36
2019-03-29T17:40:36.320Z,100952.48
2019-03-29T17:43:07.246Z,100946.98
2019-03-29T17:45:38.203Z,100951.11
2019-03-29T17:48:09.172Z,100951.27
2019-03-29T17:50:41.784Z,100950.47
2019-03-29T17:53:14.386Z,100949.12
2019-03-29T17:55:46.333Z,100951.19
2019-03-29T17:58:17.434Z,100946.91
2019-03-29T18:00:48.428Z,100937.30
2019-03-29T18:03:19.342Z,100923.17
2019-03-29T18:05:50.247Z,100929.00
2019-03-29T18:08:21.202Z,100920.62
2019-03-29T18:10:52.229Z,100922.56
2019-03-29T18:13:24.283Z,100916.90
2019-03-29T18:15:55.282Z,100923.09
2019-03-29T18:18:26.398Z,100928.92
2019-03-29T18:20:57.310Z,100923.04
2019-03-29T18:23:28.371Z,100926.88
2019-03-29T18:25:59.400Z,100915.82
2019-03-29T18:28:30.498Z,100919.17
2019-03-29T18:31:01.509Z,100927.56
2019-03-29T18:33:32.510Z,100916.00
2019-03-29T18:36:04.460Z,100913.22
2019-03-29T18:38:36.021Z,100904.89
2019-03-29T18:41:06.910Z,100903.56
2019-03-29T18:43:37.951Z,100905.05
2019-03-29T18:46:08.957Z,100902.77
2019-03-29T18:48:42.990Z,100906.80
2019-03-29T18:51:15.198Z,100898.00
2019-03-29T18:53:46.189Z,100902.91
2019-03-29T18:56:17.980Z,100894.52
2019-03-29T18:58:49.095Z,100894.57
2019-03-29T19:01:21.607Z,100892.69
2019-03-29T19:03:52.634Z,100885.16
2019-03-29T19:06:23.528Z,100885.22
2019-03-29T19:08:54.556Z,100883.73
2019-03-29T19:11:26.571Z,100876.63
2019-03-29T19:13:57.526Z,100872.39
2019-03-29T19:16:28.473Z,100879.20
2019-03-29T19:19:10.090Z,100874.04
2019-03-29T19:21:32.416Z,100874.60
2019-03-29T19:24:04.552Z,100877.33
2019-03-29T19:26:35.696Z,100875.42
2019-03-29T19:29:06.811Z,100870.00
2019-03-29T19:31:39.355Z,100875.09
2019-03-29T19:34:10.457Z,100869.25
2019-03-29T19:36:44.450Z,100872.94
2019-03-29T19:39:15.679Z,100867.37
2019-03-29T19:41:47.266Z,100865.05
2019-03-29T19:44:19.389Z,100860.26
2019-03-29T19:46:50.348Z,100861.52
2019-03-29T19:49:22.908Z,100854.98
2019-03-29T19:51:53.955Z,100869.58
2019-03-29T19:54:25.146Z,100863.03
2019-03-29T19:56:57.141Z,100867.45
2019-03-29T19:59:28.294Z,100869.34
2019-03-29T20:02:00.465Z,100870.27
2019-03-29T20:04:31.449Z,100874.16
2019-03-29T20:07:02.633Z,100870.92
2019-03-29T20:09:33.689Z,100874.00
2019-03-29T20:12:04.609Z,100868.48
2019-03-29T20:14:37.437Z,100866.22
2019-03-29T20:17:09.696Z,100866.81
2019-03-29T20:19:40.820Z,100857.41
2019-03-29T20:22:11.932Z,100867.55
2019-03-29T20:24:43.421Z,100852.22
2019-03-29T20:27:14.414Z,100852.70
2019-03-29T20:29:48.793Z,100862.53
2019-03-29T20:32:22.696Z,100854.77
2019-03-29T20:34:53.731Z,100863.11
2019-03-29T20:37:27.397Z,100854.91
2019-03-29T20:40:03.382Z,100856.80
2019-03-29T20:42:38.918Z,100856.80
2019-03-29T20:45:11.719Z,100849.46
2019-03-29T20:47:42.903Z,100848.77
2019-03-29T20:50:14.612Z,100851.66
2019-03-29T20:52:51.908Z,100858.48
2019-03-29T20:55:27.627Z,100851.54
2019-03-29T20:57:59.603Z,100859.63
2019-03-29T21:00:46.963Z,100865.17
2019-03-29T21:03:36.026Z,100861.42
2019-03-29T21:06:15.338Z,100870.02
2019-03-29T21:08:54.770Z,100866.55
2019-03-29T21:11:35.451Z,100872.98
2019-03-29T21:14:12.679Z,100872.58
2019-03-29T21:16:43.910Z,100870.33
2019-03-29T21:19:15.035Z,100873.16
2019-03-29T21:21:48.122Z,100867.20
2019-03-29T21:24:19.278Z,100865.30
2019-03-29T21:26:53.065Z,100872.35
2019-03-29T21:29:28.133Z,100868.60
2019-03-29T21:32:01.486Z,100875.08
2019-03-29T21:34:32.517Z,100879.77
2019-03-29T21:37:03.602Z,100875.77
2019-03-29T21:39:38.958Z,100874.50
2019-03-29T21:42:10.283Z,100880.83
2019-03-29T21:44:41.299Z,100877.34
2019-03-29T21:47:12.444Z,100875.33
2019-03-29T21:49:43.707Z,100875.19
2019-03-29T21:52:18.804Z,100874.45
2019-03-29T21:54:52.804Z,100871.27
2019-03-29T21:57:27.670Z,100865.19
2019-03-29T22:00:00.944Z,100872.37
2019-03-29T22:02:36.821Z,100865.42
2019-03-29T22:05:10.341Z,100857.01
2019-03-29T22:07:40.506Z,100854.20
2019-03-29T22:10:12.513Z,100857.48
2019-03-29T22:12:45.194Z,100862.45
2019-03-29T22:15:16.308Z,100863.94
2019-03-29T22:17:47.327Z,100859.80
2019-03-29T22:20:18.557Z,100853.30
2019-03-29T22:22:49.696Z,100858.41
2019-03-29T22:25:20.765Z,100850.08
2019-03-29T22:27:52.009Z,100857.77
2019-03-29T22:30:24.039Z,100854.80
2019-03-29T22:32:55.152Z,100860.02
2019-03-29T22:35:26.147Z,100854.28
2019-03-29T22:37:57.146Z,100846.80
2019-03-29T22:40:29.630Z,100862.15
2019-03-29T22:43:07.208Z,100855.80
2019-03-29T22:45:36.612Z,100863.87
2019-03-29T22:48:07.633Z,100864.77
2019-03-29T22:50:39.872Z,100872.84
2019-03-29T22:53:11.246Z,100872.02
2019-03-29T22:55:42.411Z,100879.09
2019-03-29T22:58:15.778Z,100877.28
2019-03-29T23:00:51.560Z,100872.33
2019-03-29T23:03:22.854Z,100871.50
2019-03-29T23:05:53.939Z,100872.73
2019-03-29T23:08:25.039Z,100873.81
2019-03-29T23:10:55.949Z,100875.70
2019-03-29T23:13:28.504Z,100877.80
2019-03-29T23:15:59.396Z,100876.06
2019-03-29T23:18:30.369Z,100871.35
2019-03-29T23:21:01.288Z,100870.95
2019-03-29T23:23:32.337Z,100873.20
2019-03-29T23:26:03.407Z,100883.02
2019-03-29T23:28:34.480Z,100878.45
2019-03-29T23:31:05.834Z,100883.06
2019-03-29T23:33:36.854Z,100883.88
2019-03-29T23:36:09.533Z,100888.41
2019-03-29T23:38:40.626Z,100887.66
2019-03-29T23:41:11.795Z,100885.73
2019-03-29T23:43:42.803Z,100884.86
2019-03-29T23:46:13.871Z,100880.10
2019-03-29T23:48:44.889Z,100882.84
2019-03-29T23:51:18.451Z,100878.15
2019-03-29T23:53:49.689Z,100873.14
2019-03-29T23:56:21.796Z,100878.88
2019-03-29T23:58:55.191Z,100877.17
